Anza Borrego Desert State Park, California Weather observations

Data are for 10 minute period ending at time listed.
 Day   Time   Solar   Ave.   Ave.  Ave.  Vector  Max.   Baro.   Total    
  of    of     Rad.   Air    Rel.  Wind   Wind   Wind  Press.  Precip.   
Year   Day            Temp.  Hum.  Speed  Dir.   Gust                    
2016   (PST)  Kw/m2    F      %     mph   deg.    mph    mb.     in.     
-------------------------------------------------------------------------
 209    3:50   0.00   88.6    30    0.4   323     1.5   977.6    0.00 
 209    4:00   0.00   88.2    30    2.0   220     3.2   977.7    0.00 
 209    4:10   0.00   88.0    30    2.8   222     4.7   977.8    0.00 
 209    4:20   0.00   88.0    30    4.3   214     5.8   977.8    0.00 
 209    4:30   0.00   87.5    31    3.1   212     5.2   978.0    0.00 
 209    4:40   0.00   87.8    30    4.2   176     7.9   978.0    0.00 
 209    4:50   0.00   90.4    26    6.5   175     9.1   978.1    0.00 
 209    5:00   0.00   91.5    26    5.0   201     8.4   978.2    0.00 
 209    5:10   0.01   91.7    26    2.7   221     4.4   978.5    0.00 
 209    5:20   0.02   91.6    26    2.7   186     4.0   978.6    0.00 
 209    5:30   0.04   91.5    26    2.6   220     4.5   978.7    0.00 
 209    5:40   0.07   91.8    26    2.4   208     4.4   978.7    0.00 
 209    5:50   0.09   93.9    25    2.8   208     4.8   978.9    0.00 
 209    6:00   0.11   96.0    23    1.5   204     3.9   979.1    0.00 
 209    6:10   0.14   97.7    22    2.5   268     4.0   979.2    0.00 
 209    6:20   0.17   98.5    22    1.2   266     2.4   979.2    0.00 
 209    6:30   0.20  100.4    20    0.9   300     2.6   979.3    0.00 
 209    6:40   0.23  101.0    20    1.4    79     2.3   979.5    0.00 
 209    6:50   0.27  100.5    20    2.5    78     4.0   979.7    0.00 
 209    7:00   0.30   99.1    21    4.1    67     5.9   979.9    0.00 
 209    7:10   0.34   98.5    22    2.6    61     4.6   980.0    0.00 
 209    7:20   0.37  100.0    21    1.8    96     3.2   980.2    0.00 
 209    7:30   0.41  101.2    20    4.0   167     7.3   980.2    0.00 
 209    7:40   0.44  100.5    20    5.1   162     7.1   980.3    0.00 
 209    7:50   0.47  100.8    20    5.8   160     8.3   980.3    0.00 
 209    8:00   0.51  100.7    20    6.1   139     8.2   980.2    0.00 
 209    8:10   0.54  101.1    20    5.8   140     7.8   980.2    0.00 
 209    8:20   0.57  101.8    19    4.9   131     8.7   980.2    0.00 
 209    8:30   0.60  102.0    19    5.7   105     8.1   980.2    0.00 
 209    8:40   0.63  101.8    19    5.7    92     9.1   980.3    0.00 
 209    8:50   0.66  102.8    19    4.6    99     6.6   980.3    0.00 
 209    9:00   0.69  103.4    18    3.7    71     7.5   980.3    0.00 
 209    9:10   0.71  105.0    18    2.0   100     5.7   980.3    0.00 
 209    9:20   0.74  105.0    18    3.7   110     8.3   980.3    0.00 
 209    9:30   0.76  105.3    18    4.3    84     8.7   980.3    0.00 
 209    9:40   0.79  105.5    19    5.9   104    10.2   980.3    0.00 
 209    9:50   0.81  105.2    20    5.3    86     9.6   980.3    0.00 
 209   10:00   0.82  104.8    22    7.3    96    11.8   980.4    0.00 
 209   10:10   0.85  104.9    23    9.7   109    13.8   980.3    0.00 
 209   10:20   0.86  105.8    22    6.5   109    12.3   980.3    0.00 
 209   10:30   0.88  105.9    22    7.7   107    12.4   980.2    0.00 
 209   10:40   0.89  106.0    21    8.4    93    14.2   980.1    0.00 
 209   10:50   0.90  105.9    21   10.1   102    14.2   980.0    0.00 
 209   11:00   0.91  106.9    21    8.5   108    13.8   980.0    0.00 
 209   11:10   0.91  106.4    21    8.6    99    13.8   980.0    0.00 
 209   11:20   0.79  106.8    21    8.9   108    15.3   979.9    0.00 
 209   11:30   0.93  106.5    22    9.1   101    15.6   979.9    0.00 
 209   11:40   0.94  107.9    21    8.4   105    14.0   979.8    0.00 
 209   11:50   0.94  107.3    21    6.5    87    12.3   979.7    0.00 
 209   12:00   0.95  107.7    21    6.4   138    11.6   979.6    0.00 
 209   12:10   0.95  108.6    20    6.9   119    12.2   979.5    0.00 
 209   12:20   0.99  108.3    21    6.4   121    12.6   979.3    0.00 
 209   12:30   0.91  108.7    20    5.4   100    12.8   979.2    0.00 
 209   12:40   0.85  109.6    20    6.2   108    12.3   979.0    0.00 
 209   12:50   0.91  109.1    20    6.7   131    13.2   978.8    0.00 
 209   13:00   0.91  109.4    20    6.7    98    11.4   978.7    0.00 
 209   13:10   0.91  110.6    19    6.1    65    10.7   978.4    0.00 
 209   13:20   0.84  111.0    19    4.9    88    11.4   978.1    0.00 
 209   13:30   0.84  110.7    19    7.2   102    15.6   977.9    0.00 
 209   13:40   0.86  110.9    19    6.6    96    11.5   977.7    0.00 
 209   13:50   0.86  111.6    18    6.4    97    13.2   977.5    0.00 
 209   14:00   0.81  111.2    18    6.5    54    10.8   977.3    0.00 
 209   14:10   0.78  111.4    18    4.5     6    10.3   977.0    0.00 
 209   14:20   0.75  112.6    18    7.1    95    16.6   976.9    0.00 
 209   14:30   0.74  112.7    18    4.7    36    17.6   976.7    0.00 
 209   14:40   0.72  112.9    18    6.7    47    11.8   976.5    0.00 
 209   14:50   0.67  113.2    17    5.2    50     8.8   976.4    0.00 
 209   15:00   0.66  113.7    16    6.3     8    11.7   976.3    0.00 
 209   15:10   0.66  113.4    15   11.7   277    20.2   976.2    0.00 
 209   15:20   0.64  113.7    14   13.1   276    18.4   976.2    0.00 
 209   15:30   0.61  112.7    14   13.9   277    20.6   976.3    0.00 
 209   15:40   0.58  112.4    14   16.7   281    23.6   976.2    0.00 
 209   15:50   0.56  111.8    14   15.0   279    20.8   976.3    0.00 
 209   16:00   0.52  112.2    14   15.5   277    22.3   976.2    0.00 
 209   16:10   0.49  112.0    14   14.3   279    18.9   976.1    0.00 
 209   16:20   0.47  111.1    14   16.0   283    22.6   976.1    0.00 
 209   16:30   0.45  111.3    14   13.4   286    20.0   976.1    0.00 
 209   16:40   0.21  110.4    14   14.7   279    21.0   976.1    0.00 
 209   16:50   0.13  109.0    15   14.4   284    20.5   976.1    0.00 
 209   17:00   0.15  108.5    15   12.8   284    18.0   976.2    0.00 
 209   17:10   0.14  108.5    15   11.5   298    18.7   976.1    0.00 
 209   17:20   0.10  108.1    15   11.1   305    17.8   976.1    0.00 
 209   17:30   0.08  107.3    16   10.9   319    18.2   976.1    0.00 
 209   17:40   0.05  106.2    16   13.1   325    22.6   976.2    0.00 
 209   17:50   0.03  104.9    17   15.0   332    23.3   976.3    0.00 
 209   18:00   0.02  104.5    17   14.6   332    24.6   976.4    0.00 
 209   18:10   0.01  103.8    17   16.8   336    25.6   976.4    0.00 
 209   18:20   0.01  103.6    17   14.9   328    23.7   976.5    0.00 
 209   18:30   0.01  103.7    17   14.0   327    24.1   976.6    0.00 
 209   18:40   0.01  103.6    17   12.2   331    20.0   976.7    0.00 
 209   18:50   0.00  103.4    18   12.1   336    21.3   976.7    0.00 
 209   19:00   0.00  103.7    17   11.2   334    18.6   976.8    0.00 
 209   19:10   0.00  103.7    17    8.8   331    16.0   976.8    0.00 
 209   19:20   0.00  103.4    18    8.4   334    20.2   976.9    0.00 
 209   19:30   0.00  103.0    18    3.3   273     7.6   977.1    0.00 
 209   19:40   0.00  102.4    18    7.8   111    11.5   977.2    0.00 
 209   19:50   0.00  101.9    18    6.6    99     9.8   977.4    0.00 
 209   20:00   0.00  101.7    18    5.3    94     9.7   977.4    0.00 
 209   20:10   0.00  101.0    19    4.3    82     6.9   977.5    0.00 
 209   20:20   0.00  100.5    19    1.5   100     3.4   977.7    0.00 
 209   20:30   0.00   99.4    20    2.0    24     4.3   977.8    0.00 
 209   20:40   0.00   98.3    20    2.2    90     3.8   977.9    0.00 
 209   20:50   0.00   97.2    21    1.9   178     3.4   977.9    0.00 
 209   21:00   0.00   95.2    21    2.6   224     5.0   977.9    0.00 
 209   21:10   0.00   95.1    22    2.8   250     4.5   977.9    0.00 
 209   21:20   0.00   94.7    22    1.0   198     2.0   977.9    0.00 
 209   21:30   0.00   94.6    22    2.9   162     6.3   977.8    0.00 
 209   21:40   0.00   96.2    21    3.5   205     5.4   977.8    0.00 
 209   21:50   0.00   96.2    21    5.4   224     7.9   977.8    0.00 
 209   22:00   0.00   95.9    21    3.1   230     4.3   977.8    0.00 
 209   22:10   0.00   94.2    22    3.4   254     6.3   977.8    0.00 
 209   22:20   0.00   93.3    23    2.1   174     3.9   977.6    0.00 
 209   22:30   0.00   93.3    23    3.2   150     5.4   977.5    0.00 
 209   22:40   0.00   94.3    22    3.2   136     6.4   977.4    0.00 
 209   22:50   0.00   95.0    22    2.8   139     6.1   977.4    0.00 
 209   23:00   0.00   95.2    22    4.5   140     5.5   977.4    0.00 
 209   23:10   0.00   93.4    23    4.2   203     6.0   977.3    0.00 
 209   23:20   0.00   92.8    24    2.6   220     3.9   977.2    0.00 
 209   23:30   0.00   92.2    24    1.8   189     4.6   977.1    0.00 
 209   23:40   0.00   91.8    24    1.5   225     4.1   977.1    0.00 
 209   23:50   0.00   92.8    24    0.6   243     3.0   977.1    0.00 
 210    0:00   0.00   91.5    24    0.6   240     1.5   976.9    0.00 
 210    0:10   0.00   90.3    25    1.0   186     3.1   976.8    0.00 
 210    0:20   0.00   90.6    25    4.1   217     6.9   976.7    0.00 
 210    0:30   0.00   91.5    25    6.0   245     8.6   976.7    0.00 
 210    0:40   0.00   91.6    25    3.3   258     5.6   976.7    0.00 
 210    0:50   0.00   91.1    25    3.7   273     4.8   976.7    0.00 
 210    1:00   0.00   91.0    25    3.8   247     5.0   976.7    0.00 
 210    1:10   0.00   90.6    25    4.3   269     6.0   976.7    0.00 
 210    1:20   0.00   90.1    26    2.8   273     4.1   976.6    0.00 
 210    1:30   0.00   90.4    25    1.9   264     3.2   976.5    0.00 
 210    1:40   0.00   89.5    26    2.3   258     3.9   976.4    0.00 
 210    1:50   0.00   89.0    26    1.6   205     3.6   976.5    0.00 
 210    2:00   0.00   89.1    26    1.7   237     2.8   976.5    0.00 
 210    2:10   0.00   89.5    26    1.6   204     2.8   976.5    0.00 
 210    2:20   0.00   88.0    27    2.9   297     5.5   976.5    0.00 
 210    2:30   0.00   89.0    27    3.8   311     5.8   976.6    0.00 
 210    2:40   0.00   89.9    26    3.0   290     6.1   976.4    0.00 
 210    2:50   0.00   89.3    26    1.5    79     2.9   976.6    0.00 
 210    3:00   0.00   88.6    27    0.6    97     1.8   976.7    0.00 
 210    3:10   0.00   88.1    27    2.8   259     4.9   976.9    0.00 
 210    3:20   0.00   87.5    28    4.2   259     6.5   977.0    0.00 
 210    3:30   0.00   87.5    28    2.7   248     4.5   976.9    0.00 
 210    3:40   0.00   87.2    28    1.6   204     3.2   977.0    0.00 

Return to Anza Borrego Desert State Park graphs page.


Western Regional Climate Center,wrcc@dri.edu